Time;durP1;ratioP1;P1;durP2;ratioP2;P2;SDS_P1;SDS_P2;PMS_P1;PMS_P2;Temp;Humidity;BMP_temperature;BMP_pressure;BME280_temperature;BME280_humidity;BME280_pressure;Samples;Min_cycle;Max_cycle;Signal;HPM_P1;HPM_P2
2023/03/09 00:00:37;;;;;;;441.13;238.47;;;;;;;6.40;nan;96792.31;5011416;28;20523;-60
2023/03/09 00:03:03;;;;;;;439.37;234.87;;;;;;;6.18;nan;96765.03;5008559;28;20140;-60
2023/03/09 00:05:28;;;;;;;440.80;236.13;;;;;;;6.13;nan;96749.91;5009950;28;20041;-59
2023/03/09 00:07:55;;;;;;;440.70;237.20;;;;;;;6.16;nan;96782.88;5009557;28;20432;-60
2023/03/09 00:10:22;;;;;;;438.37;232.03;;;;;;;6.01;nan;96775.75;5011066;28;20046;-60
2023/03/09 00:12:48;;;;;;;437.70;234.87;;;;;;;6.06;nan;96763.72;5007621;28;20287;-60
2023/03/09 00:15:14;;;;;;;440.70;230.67;;;;;;;6.00;nan;96755.44;5006782;28;20770;-59
2023/03/09 00:17:42;;;;;;;436.60;224.13;;;;;;;5.92;nan;96755.69;5009406;28;21086;-60
2023/03/09 00:20:17;;;;;;;438.70;220.83;;;;;;;5.73;nan;96752.81;5012018;28;20152;-60
2023/03/09 00:22:50;;;;;;;440.03;229.23;;;;;;;5.56;nan;96732.16;5011374;28;20298;-60
2023/03/09 00:25:16;;;;;;;439.17;228.97;;;;;;;5.34;nan;96719.28;5008911;28;20293;-60
2023/03/09 00:27:42;;;;;;;436.73;213.77;;;;;;;5.40;nan;96733.47;5009289;28;20633;-59
2023/03/09 00:30:10;;;;;;;440.15;226.27;;;;;;;5.39;nan;96739.44;5011786;28;20564;-60
2023/03/09 00:32:36;;;;;;;438.65;221.82;;;;;;;5.28;nan;96728.75;5008888;28;20112;-60
2023/03/09 00:35:03;;;;;;;437.23;224.43;;;;;;;5.03;nan;96701.53;5006871;28;20049;-60
2023/03/09 00:37:30;;;;;;;438.35;223.88;;;;;;;4.96;nan;96710.19;5013807;28;20045;-60
2023/03/09 00:39:55;;;;;;;435.03;215.43;;;;;;;5.19;nan;96727.31;5012054;28;20086;-60
2023/03/09 00:42:21;;;;;;;435.27;216.53;;;;;;;5.12;nan;96725.84;5010157;28;20042;-60
2023/03/09 00:44:47;;;;;;;438.27;215.77;;;;;;;5.26;nan;96720.38;5009407;28;20584;-60
2023/03/09 00:47:13;;;;;;;438.40;210.53;;;;;;;4.96;nan;96677.19;5010170;28;20045;-59
2023/03/09 00:49:38;;;;;;;431.20;202.73;;;;;;;5.00;nan;96688.09;5008510;28;20052;-60
2023/03/09 00:52:05;;;;;;;435.17;214.13;;;;;;;4.85;nan;96668.19;5006641;28;20460;-60
2023/03/09 00:54:31;;;;;;;433.83;204.95;;;;;;;4.72;nan;96675.31;5007427;28;20128;-61
2023/03/09 00:56:57;;;;;;;431.37;197.87;;;;;;;4.67;nan;96663.66;5010102;28;20114;-61
2023/03/09 00:59:23;;;;;;;431.80;199.73;;;;;;;4.60;nan;96666.34;5006381;28;20059;-61
2023/03/09 01:01:49;;;;;;;435.33;204.60;;;;;;;4.50;nan;96667.44;5008447;28;20057;-61
2023/03/09 01:04:14;;;;;;;434.00;206.37;;;;;;;4.55;nan;96662.25;5023861;28;20072;-61
2023/03/09 01:06:40;;;;;;;432.73;200.63;;;;;;;4.66;nan;96652.66;5017139;28;20050;-60
2023/03/09 01:09:05;;;;;;;430.97;191.90;;;;;;;4.50;nan;96666.59;5008210;28;20046;-61
2023/03/09 01:11:31;;;;;;;433.80;205.57;;;;;;;4.50;nan;96669.97;5012953;28;20030;-60
2023/03/09 01:13:57;;;;;;;429.87;190.37;;;;;;;4.47;nan;96667.53;5020111;28;20046;-60
2023/03/09 01:16:23;;;;;;;431.27;197.02;;;;;;;4.45;nan;96671.84;5008298;28;20053;-60
2023/03/09 01:18:51;;;;;;;431.67;192.98;;;;;;;4.40;nan;96666.03;5007034;28;20243;-60
2023/03/09 01:21:17;;;;;;;428.00;188.83;;;;;;;4.55;nan;96654.63;5005465;28;20037;-60
2023/03/09 01:23:43;;;;;;;431.05;193.70;;;;;;;4.68;nan;96640.75;5006207;28;20602;-59
2023/03/09 01:26:09;;;;;;;427.83;192.20;;;;;;;4.80;nan;96626.88;5007445;28;20081;-61
2023/03/09 01:28:37;;;;;;;430.95;195.10;;;;;;;4.92;nan;96617.19;5005365;28;20073;-60
2023/03/09 01:31:11;;;;;;;428.97;191.80;;;;;;;5.77;nan;96593.41;5004807;28;20133;-60
2023/03/09 01:33:39;;;;;;;430.02;201.85;;;;;;;6.37;nan;96613.41;5005901;28;20046;-61
2023/03/09 01:36:07;;;;;;;428.27;200.07;;;;;;;6.84;nan;96591.34;5007852;28;20452;-61
2023/03/09 01:38:33;;;;;;;439.27;225.53;;;;;;;7.48;nan;96607.56;5005976;28;20481;-61
2023/03/09 01:40:59;;;;;;;437.57;229.03;;;;;;;7.75;nan;96603.94;5005435;28;20330;-61
2023/03/09 01:43:42;;;;;;;438.50;234.33;;;;;;;8.02;nan;96584.09;5004624;28;20371;-60
2023/03/09 01:46:20;;;;;;;438.30;236.40;;;;;;;8.24;nan;96574.63;5006761;28;20694;-60
2023/03/09 01:48:49;;;;;;;437.40;241.77;;;;;;;8.42;nan;96565.41;5005953;28;20296;-62
2023/03/09 01:51:16;;;;;;;443.47;259.07;;;;;;;8.49;nan;96565.94;5006301;28;20287;-61
2023/03/09 01:53:42;;;;;;;441.63;253.40;;;;;;;8.52;nan;96558.16;5008957;28;20300;-61
2023/03/09 01:56:09;;;;;;;448.50;277.57;;;;;;;8.59;nan;96557.00;5009900;28;20294;-61
2023/03/09 01:58:35;;;;;;;448.70;274.77;;;;;;;8.54;nan;96548.69;5008504;28;20638;-61
2023/03/09 02:01:01;;;;;;;448.57;281.53;;;;;;;8.61;nan;96553.47;5000635;28;20287;-61
2023/03/09 02:03:37;;;;;;;447.60;278.10;;;;;;;8.50;nan;96550.56;5008846;28;20056;-61
2023/03/09 02:06:18;;;;;;;446.17;277.83;;;;;;;8.55;nan;96561.41;5015890;28;20050;-60
2023/03/09 02:08:55;;;;;;;448.30;271.90;;;;;;;8.52;nan;96569.22;5008061;28;21224;-60
2023/03/09 02:11:20;;;;;;;446.80;277.90;;;;;;;8.50;nan;96565.88;5002948;28;20300;-60
2023/03/09 02:13:51;;;;;;;449.03;282.53;;;;;;;8.49;nan;96565.94;5006014;28;20327;-62
2023/03/09 02:16:17;;;;;;;447.63;276.17;;;;;;;8.51;nan;96569.28;5017725;28;20049;-61
2023/03/09 02:18:43;;;;;;;450.00;291.40;;;;;;;8.48;nan;96556.66;5007612;28;20289;-60
2023/03/09 02:21:09;;;;;;;446.73;273.63;;;;;;;8.54;nan;96569.13;5008257;28;20052;-59
2023/03/09 02:23:48;;;;;;;449.67;288.20;;;;;;;8.54;nan;96575.06;5007975;28;20770;-61
2023/03/09 02:26:26;;;;;;;448.07;279.83;;;;;;;8.48;nan;96559.19;5007318;28;20054;-61
2023/03/09 02:28:52;;;;;;;451.53;284.33;;;;;;;8.36;nan;96547.78;5006264;28;20636;-60
2023/03/09 02:31:19;;;;;;;446.50;280.20;;;;;;;8.33;nan;96544.53;5006079;28;20311;-60
2023/03/09 02:33:45;;;;;;;450.53;280.07;;;;;;;8.34;nan;96549.59;5004819;28;20293;-61
2023/03/09 02:36:11;;;;;;;453.60;291.70;;;;;;;8.34;nan;96552.13;5006527;28;20349;-59
2023/03/09 02:38:39;;;;;;;448.27;280.10;;;;;;;8.21;nan;96551.81;5008689;28;20804;-63
2023/03/09 02:41:09;;;;;;;449.60;288.43;;;;;;;8.49;nan;96553.19;5006025;28;20410;-63
2023/03/09 02:43:41;;;;;;;447.40;285.80;;;;;;;8.38;nan;96548.56;5008002;28;20136;-61
2023/03/09 02:46:06;;;;;;;454.03;299.70;;;;;;;8.09;nan;96521.72;5016652;28;20347;-61
2023/03/09 02:48:35;;;;;;;448.30;282.33;;;;;;;8.18;nan;96554.50;5007638;28;20300;-61
2023/03/09 02:51:01;;;;;;;450.97;295.60;;;;;;;8.25;nan;96545.69;5010018;28;20388;-60
2023/03/09 02:53:27;;;;;;;450.37;280.67;;;;;;;8.36;nan;96549.53;5014239;28;20042;-59
2023/03/09 02:55:56;;;;;;;450.33;289.80;;;;;;;8.43;nan;96538.13;5008161;28;20718;-60
2023/03/09 02:58:23;;;;;;;450.13;281.90;;;;;;;8.69;nan;96545.47;5016144;28;20305;-59
2023/03/09 03:00:49;;;;;;;447.77;284.20;;;;;;;8.87;nan;96536.97;5008727;28;20300;-60
2023/03/09 03:03:19;;;;;;;454.30;294.57;;;;;;;8.85;nan;96532.84;5010436;28;20392;-60
2023/03/09 03:05:49;;;;;;;453.27;303.53;;;;;;;8.88;nan;96520.75;5011289;28;20141;-60
2023/03/09 03:08:15;;;;;;;453.50;301.33;;;;;;;8.87;nan;96531.84;5008430;28;20300;-61
2023/03/09 03:10:44;;;;;;;454.90;301.83;;;;;;;8.84;nan;96523.50;4994279;28;20755;-61
2023/03/09 03:13:10;;;;;;;450.40;295.73;;;;;;;8.88;nan;96522.47;5008420;28;20711;-61
2023/03/09 03:15:36;;;;;;;453.23;295.37;;;;;;;8.66;nan;96526.00;5009552;28;20699;-61
2023/03/09 03:18:02;;;;;;;447.27;289.80;;;;;;;8.68;nan;96524.22;5014048;28;20053;-60
2023/03/09 03:20:28;;;;;;;452.77;296.80;;;;;;;8.72;nan;96514.69;5009749;28;20168;-60
2023/03/09 03:22:55;;;;;;;451.07;288.93;;;;;;;8.88;nan;96535.25;4999601;28;20323;-59
2023/03/09 03:25:27;;;;;;;452.70;296.00;;;;;;;8.95;nan;96541.75;5016765;28;20698;-60
2023/03/09 03:27:57;;;;;;;453.20;299.23;;;;;;;8.97;nan;96542.47;5012642;28;20289;-62
2023/03/09 03:30:23;;;;;;;447.77;285.13;;;;;;;8.91;nan;96515.47;5013854;28;20521;-60
2023/03/09 03:32:53;;;;;;;453.57;305.50;;;;;;;9.15;nan;96557.81;5011738;28;20874;-60
2023/03/09 03:35:22;;;;;;;452.60;299.87;;;;;;;8.97;nan;96543.31;5024382;28;20300;-60
2023/03/09 03:37:48;;;;;;;450.93;292.43;;;;;;;9.05;nan;96554.00;5016899;28;20309;-60
2023/03/09 03:40:18;;;;;;;452.83;296.93;;;;;;;8.96;nan;96541.66;5014042;28;20311;-60
2023/03/09 03:42:48;;;;;;;456.07;308.50;;;;;;;8.76;nan;96516.19;5022658;28;20284;-60
2023/03/09 03:45:15;;;;;;;456.50;303.83;;;;;;;9.04;nan;96546.41;5011606;28;20772;-60
2023/03/09 03:47:41;;;;;;;455.73;309.87;;;;;;;8.93;nan;96534.13;5015091;28;20318;-59
2023/03/09 03:50:07;;;;;;;451.50;295.70;;;;;;;8.82;nan;96546.59;5015489;28;20041;-62
2023/03/09 03:52:40;;;;;;;452.53;300.83;;;;;;;8.83;nan;96537.16;5012916;28;20092;-60
2023/03/09 03:55:07;;;;;;;453.80;299.50;;;;;;;8.77;nan;96551.06;5017759;28;20354;-59
2023/03/09 03:57:33;;;;;;;456.03;305.10;;;;;;;8.70;nan;96542.84;5014161;28;20344;-60
2023/03/09 03:59:59;;;;;;;454.07;308.67;;;;;;;8.77;nan;96547.69;5009756;28;20297;-59
2023/03/09 04:02:25;;;;;;;454.27;318.67;;;;;;;8.65;nan;96544.78;5009917;28;20825;-61
2023/03/09 04:04:52;;;;;;;456.03;322.67;;;;;;;8.59;nan;96551.88;5014099;28;20042;-68
2023/03/09 04:07:17;;;;;;;455.30;322.03;;;;;;;8.49;nan;96550.63;4999280;28;20291;-61
2023/03/09 04:09:43;;;;;;;453.33;315.13;;;;;;;8.51;nan;96569.28;5013401;28;20398;-60
2023/03/09 04:12:09;;;;;;;450.47;303.87;;;;;;;8.45;nan;96564.41;5013515;28;20041;-61
2023/03/09 04:14:39;;;;;;;449.10;293.03;;;;;;;8.46;nan;96584.78;5010341;28;20875;-61
2023/03/09 04:17:05;;;;;;;448.77;285.23;;;;;;;8.55;nan;96581.84;5012871;28;20289;-61
2023/03/09 04:19:31;;;;;;;449.67;285.20;;;;;;;8.46;nan;96553.31;5011813;28;20881;-59
2023/03/09 04:21:57;;;;;;;447.93;286.37;;;;;;;8.47;nan;96560.94;5028703;28;20026;-59
2023/03/09 04:24:23;;;;;;;448.83;290.10;;;;;;;8.61;nan;96568.78;5011847;28;20052;-61
2023/03/09 04:26:49;;;;;;;450.80;292.50;;;;;;;8.76;nan;96561.34;5010028;28;20404;-60
2023/03/09 04:29:21;;;;;;;449.63;286.90;;;;;;;8.79;nan;96551.81;5011658;28;20040;-59
2023/03/09 04:31:48;;;;;;;452.47;292.57;;;;;;;8.83;nan;96557.59;5015254;28;20307;-58
2023/03/09 04:34:14;;;;;;;453.60;290.47;;;;;;;8.89;nan;96557.34;5011430;28;20305;-58
2023/03/09 04:36:41;;;;;;;455.30;294.73;;;;;;;8.85;nan;96551.53;5011365;28;20751;-59
2023/03/09 04:39:07;;;;;;;452.80;296.13;;;;;;;8.77;nan;96550.25;5010953;28;20342;-60
2023/03/09 04:41:34;;;;;;;454.27;296.83;;;;;;;8.69;nan;96545.47;5017847;28;20296;-59
2023/03/09 04:44:03;;;;;;;451.53;293.40;;;;;;;8.66;nan;96560.91;5010111;28;20307;-59
2023/03/09 04:46:29;;;;;;;456.10;300.50;;;;;;;8.66;nan;96558.38;5014273;28;20284;-58
2023/03/09 04:49:00;;;;;;;454.33;296.70;;;;;;;8.41;nan;96543.31;5018856;28;20037;-59
2023/03/09 04:51:26;;;;;;;456.37;295.67;;;;;;;8.42;nan;96554.34;5019046;28;20626;-60
2023/03/09 04:53:53;;;;;;;450.93;284.23;;;;;;;8.42;nan;96562.00;5012713;28;20093;-59
2023/03/09 04:56:22;;;;;;;455.13;289.20;;;;;;;8.41;nan;96547.59;5010018;28;20332;-60
2023/03/09 04:58:51;;;;;;;455.33;284.60;;;;;;;8.29;nan;96541.28;5020418;28;20783;-59
2023/03/09 05:01:23;;;;;;;448.27;275.47;;;;;;;8.05;nan;96530.41;5010541;28;20300;-59
2023/03/09 05:03:48;;;;;;;449.93;275.10;;;;;;;8.18;nan;96531.53;5010840;28;20289;-59
2023/03/09 05:06:14;;;;;;;454.77;279.73;;;;;;;8.16;nan;96528.19;5017304;28;20152;-58
2023/03/09 05:08:41;;;;;;;450.30;273.47;;;;;;;8.19;nan;96540.81;5027146;28;20041;-61
2023/03/09 05:11:07;;;;;;;448.77;273.07;;;;;;;8.05;nan;96535.50;5019643;28;20288;-59
2023/03/09 05:13:33;;;;;;;449.00;271.83;;;;;;;7.98;nan;96536.63;5010748;28;20303;-60
2023/03/09 05:16:07;;;;;;;450.67;270.77;;;;;;;7.79;nan;96523.00;5016598;28;20379;-61
2023/03/09 05:18:34;;;;;;;452.00;275.27;;;;;;;7.77;nan;96545.19;5009061;28;20730;-58
2023/03/09 05:21:07;;;;;;;451.00;269.23;;;;;;;7.46;nan;96526.94;5007171;28;20388;-60
2023/03/09 05:23:35;;;;;;;450.30;263.13;;;;;;;7.34;nan;96534.19;5007354;28;20311;-60
2023/03/09 05:26:02;;;;;;;449.80;257.07;;;;;;;7.03;nan;96504.88;5012250;28;20331;-61
2023/03/09 05:28:30;;;;;;;450.50;260.50;;;;;;;6.87;nan;96527.56;5005641;28;20301;-60
2023/03/09 05:30:56;;;;;;;448.77;255.40;;;;;;;6.77;nan;96532.19;5010709;28;20852;-60
2023/03/09 05:33:22;;;;;;;448.30;248.87;;;;;;;6.61;nan;96536.19;5006585;28;20871;-63
2023/03/09 05:35:50;;;;;;;444.50;229.10;;;;;;;6.54;nan;96564.44;5022643;28;20311;-60
2023/03/09 05:38:17;;;;;;;442.77;228.83;;;;;;;6.37;nan;96568.44;5006973;28;20419;-62
2023/03/09 05:40:43;;;;;;;444.03;225.20;;;;;;;6.32;nan;96585.56;5008119;28;20292;-61
2023/03/09 05:43:12;;;;;;;441.03;220.10;;;;;;;6.31;nan;96606.84;5006016;28;20305;-60
2023/03/09 05:45:38;;;;;;;438.53;218.57;;;;;;;6.21;nan;96605.47;5007569;28;20351;-59
2023/03/09 05:48:04;;;;;;;437.57;210.77;;;;;;;6.33;nan;96627.13;5009310;28;20056;-60
2023/03/09 05:50:30;;;;;;;433.53;209.10;;;;;;;6.36;nan;96632.13;4990294;28;20297;-58
2023/03/09 05:52:57;;;;;;;434.33;209.67;;;;;;;6.83;nan;96644.00;5008270;28;21012;-60
2023/03/09 05:55:22;;;;;;;436.23;213.33;;;;;;;6.77;nan;96659.50;5005463;28;20296;-59
2023/03/09 05:57:48;;;;;;;436.60;214.53;;;;;;;6.87;nan;96644.72;5010466;28;20135;-60
2023/03/09 06:00:15;;;;;;;436.23;212.70;;;;;;;6.91;nan;96660.72;5016364;28;20786;-60
2023/03/09 06:02:49;;;;;;;440.55;221.00;;;;;;;7.14;nan;96656.44;5007364;28;20046;-60
2023/03/09 06:05:20;;;;;;;439.90;224.37;;;;;;;7.15;nan;96649.63;5006438;28;20093;-61
2023/03/09 06:07:46;;;;;;;444.00;227.87;;;;;;;6.94;nan;96658.91;5026454;28;20297;-59
2023/03/09 06:10:12;;;;;;;446.90;236.23;;;;;;;7.11;nan;96671.03;5006308;28;20843;-59
2023/03/09 06:12:39;;;;;;;453.40;244.20;;;;;;;7.02;nan;96697.66;5004832;28;20350;-60
2023/03/09 06:15:07;;;;;;;443.60;239.23;;;;;;;7.21;nan;96680.00;5005856;28;20292;-61
2023/03/09 06:17:34;;;;;;;444.03;235.07;;;;;;;7.06;nan;96676.28;5007086;28;20300;-60
2023/03/09 06:20:01;;;;;;;444.83;237.63;;;;;;;6.99;nan;96679.13;5006651;28;20354;-60
2023/03/09 06:22:26;;;;;;;449.13;250.17;;;;;;;6.92;nan;96672.59;5001404;28;20069;-59
2023/03/09 06:24:53;;;;;;;442.80;240.60;;;;;;;6.91;nan;96664.13;5007564;28;20898;-61
2023/03/09 06:27:19;;;;;;;444.40;237.10;;;;;;;6.99;nan;96651.94;5015653;28;20301;-61
2023/03/09 06:29:47;;;;;;;447.70;245.67;;;;;;;7.14;nan;96641.16;5008037;28;20096;-61
2023/03/09 06:32:12;;;;;;;450.27;245.53;;;;;;;7.11;nan;96617.50;5010356;28;20941;-60
2023/03/09 06:34:39;;;;;;;446.53;248.47;;;;;;;7.25;nan;96605.94;5007216;28;20069;-61
2023/03/09 06:37:08;;;;;;;450.87;253.10;;;;;;;7.37;nan;96613.97;5007445;28;20339;-61
2023/03/09 06:39:34;;;;;;;452.37;254.60;;;;;;;7.48;nan;96640.69;5009773;28;20768;-60
2023/03/09 06:42:00;;;;;;;455.83;260.87;;;;;;;7.51;nan;96621.94;5006883;28;20056;-60
2023/03/09 06:44:38;;;;;;;454.73;258.90;;;;;;;7.77;nan;96650.59;5006301;28;20300;-59
2023/03/09 06:47:04;;;;;;;455.17;257.90;;;;;;;7.98;nan;96660.81;5008089;28;20383;-60
2023/03/09 06:49:30;;;;;;;453.47;265.83;;;;;;;8.23;nan;96664.88;5018723;28;20052;-61
2023/03/09 06:51:59;;;;;;;455.83;269.50;;;;;;;8.48;nan;96671.56;5013855;28;20296;-60
2023/03/09 06:54:25;;;;;;;451.37;265.90;;;;;;;8.60;nan;96650.59;5011413;28;20826;-59
2023/03/09 06:56:59;;;;;;;455.27;277.57;;;;;;;8.92;nan;96675.56;5012600;28;20049;-59
2023/03/09 06:59:27;;;;;;;456.27;280.23;;;;;;;9.04;nan;96681.88;5009730;28;20327;-60
2023/03/09 07:01:53;;;;;;;456.30;279.57;;;;;;;9.36;nan;96670.22;5010405;28;20199;-59
2023/03/09 07:04:18;;;;;;;462.27;301.73;;;;;;;9.51;nan;96634.53;5009669;28;20418;-60
2023/03/09 07:06:44;;;;;;;459.37;303.83;;;;;;;9.81;nan;96642.47;5008092;28;20045;-59
2023/03/09 07:09:10;;;;;;;462.70;314.13;;;;;;;10.05;nan;96664.34;5009259;28;20586;-59
2023/03/09 07:11:36;;;;;;;463.93;322.80;;;;;;;10.23;nan;96649.84;5008987;28;20291;-59
2023/03/09 07:14:01;;;;;;;466.10;318.67;;;;;;;10.36;nan;96644.94;5008610;28;20111;-58
2023/03/09 07:16:27;;;;;;;467.60;337.87;;;;;;;10.66;nan;96650.25;5010298;28;20688;-59
2023/03/09 07:18:54;;;;;;;469.17;343.43;;;;;;;10.81;nan;96662.28;5008087;28;20091;-60
2023/03/09 07:21:20;;;;;;;472.23;352.87;;;;;;;10.86;nan;96643.19;5011408;28;20745;-59
2023/03/09 07:23:46;;;;;;;472.37;351.93;;;;;;;11.16;nan;96671.53;5007337;28;20768;-59
2023/03/09 07:26:11;;;;;;;474.77;366.57;;;;;;;10.91;nan;96650.63;5009836;28;20050;-59
2023/03/09 07:28:37;;;;;;;474.10;366.83;;;;;;;11.10;nan;96678.72;5012623;28;20488;-60
2023/03/09 07:31:11;;;;;;;475.43;371.20;;;;;;;11.08;nan;96675.41;5011700;28;20059;-51
2023/03/09 07:33:37;;;;;;;478.00;371.07;;;;;;;11.07;nan;96710.50;5013043;28;20046;-60
2023/03/09 07:36:06;;;;;;;478.60;384.97;;;;;;;11.09;nan;96682.19;5012132;28;20299;-61
2023/03/09 07:38:33;;;;;;;480.60;391.60;;;;;;;11.18;nan;96705.63;5008532;28;20046;-59
2023/03/09 07:41:00;;;;;;;478.33;386.57;;;;;;;11.28;nan;96683.72;5008843;28;20289;-59
2023/03/09 07:43:26;;;;;;;482.13;393.63;;;;;;;11.41;nan;96683.91;5007493;28;20299;-59
2023/03/09 07:46:06;;;;;;;478.50;387.80;;;;;;;11.67;nan;96688.44;5009021;28;20300;-58
2023/03/09 07:48:32;;;;;;;482.43;410.37;;;;;;;12.21;nan;96720.56;5008432;28;20557;-60
2023/03/09 07:50:59;;;;;;;485.37;418.83;;;;;;;12.47;nan;96739.66;5006243;28;20291;-60
2023/03/09 07:53:24;;;;;;;485.37;423.63;;;;;;;12.51;nan;96748.84;5010651;28;20046;-60
2023/03/09 07:55:58;;;;;;;489.73;432.37;;;;;;;12.49;nan;96742.94;5007495;28;20042;-59
2023/03/09 07:58:24;;;;;;;492.37;437.90;;;;;;;12.63;nan;96725.00;5009285;28;20590;-60
2023/03/09 08:00:50;;;;;;;499.93;445.20;;;;;;;12.55;nan;96704.06;5009134;28;20652;-60
2023/03/09 08:03:16;;;;;;;491.83;437.57;;;;;;;12.54;nan;96714.41;5010987;28;20057;-60
2023/03/09 08:05:42;;;;;;;498.80;444.20;;;;;;;12.70;nan;96736.59;5006800;28;20604;-61
2023/03/09 08:08:11;;;;;;;503.93;449.63;;;;;;;12.72;nan;96715.94;5007610;28;20123;-59
2023/03/09 08:10:37;;;;;;;516.03;461.33;;;;;;;12.85;nan;96705.75;5012223;28;20058;-60
2023/03/09 08:13:03;;;;;;;522.17;467.37;;;;;;;12.87;nan;96727.88;5011850;28;20042;-59
2023/03/09 08:15:29;;;;;;;523.40;468.53;;;;;;;12.93;nan;96727.53;5011138;28;20042;-58
2023/03/09 08:17:55;;;;;;;535.37;480.37;;;;;;;12.83;nan;96744.41;5009331;28;20057;-60
2023/03/09 08:20:20;;;;;;;537.40;482.10;;;;;;;13.03;nan;96741.50;5011891;28;20070;-59
2023/03/09 08:22:46;;;;;;;536.63;481.63;;;;;;;13.00;nan;96731.38;5007592;28;20179;-59
2023/03/09 08:25:14;;;;;;;528.20;473.07;;;;;;;13.14;nan;96743.47;5005913;28;20030;-60
2023/03/09 08:27:46;;;;;;;541.50;486.27;;;;;;;13.09;nan;96730.03;5008776;28;20188;-62
2023/03/09 08:30:13;;;;;;;546.97;491.60;;;;;;;13.17;nan;96749.25;5005462;28;20045;-59
2023/03/09 08:32:39;;;;;;;553.40;498.20;;;;;;;13.25;nan;96749.63;5010019;28;20108;-59
2023/03/09 08:35:05;;;;;;;559.17;503.67;;;;;;;13.33;nan;96762.03;5010996;28;20503;-60
2023/03/09 08:37:31;;;;;;;556.90;501.30;;;;;;;13.25;nan;96765.06;4992314;28;20148;-59
2023/03/09 08:40:15;;;;;;;554.73;499.33;;;;;;;13.47;nan;96768.94;5007008;28;20034;-60
2023/03/09 08:42:41;;;;;;;571.10;514.90;;;;;;;13.77;nan;96766.25;5010861;28;20049;-59
2023/03/09 08:45:08;;;;;;;564.77;508.23;;;;;;;13.98;nan;96764.91;5009066;28;20506;-61
2023/03/09 08:47:34;;;;;;;574.47;518.77;;;;;;;14.12;nan;96770.03;5008896;28;20042;-61
2023/03/09 08:50:00;;;;;;;571.37;515.73;;;;;;;14.38;nan;96769.25;5005681;28;20397;-62
2023/03/09 08:52:26;;;;;;;590.83;534.73;;;;;;;14.73;nan;96758.38;5007396;28;20049;-60
2023/03/09 08:54:52;;;;;;;608.17;551.57;;;;;;;15.03;nan;96774.44;5005187;28;20097;-61
2023/03/09 08:57:18;;;;;;;606.23;549.83;;;;;;;15.16;nan;96775.28;5005643;28;20510;-61
2023/03/09 08:59:46;;;;;;;635.10;578.13;;;;;;;15.34;nan;96786.97;5005288;28;20612;-61
2023/03/09 09:02:14;;;;;;;621.00;564.47;;;;;;;15.24;nan;96741.19;5005952;28;20034;-60
2023/03/09 09:04:43;;;;;;;638.37;581.40;;;;;;;15.42;nan;96789.84;5006669;28;20049;-61
2023/03/09 09:07:08;;;;;;;633.27;576.43;;;;;;;15.44;nan;96782.84;5005776;28;20045;-61
2023/03/09 09:09:34;;;;;;;638.33;581.43;;;;;;;15.61;nan;96815.28;5021576;28;20121;-61
2023/03/09 09:12:00;;;;;;;655.30;597.97;;;;;;;15.53;nan;96805.47;5010264;28;20160;-60
2023/03/09 09:14:25;;;;;;;657.10;599.73;;;;;;;15.58;nan;96830.16;5009206;28;20052;-60
2023/03/09 09:16:51;;;;;;;650.80;593.70;;;;;;;15.40;nan;96863.19;5008773;28;20672;-60
2023/03/09 09:19:18;;;;;;;634.60;577.93;;;;;;;15.31;nan;96851.72;5010382;28;20313;-60
2023/03/09 09:21:43;;;;;;;629.63;572.97;;;;;;;15.29;nan;96838.06;5008138;28;20041;-60
2023/03/09 09:24:09;;;;;;;618.63;562.30;;;;;;;15.44;nan;96847.41;5009015;28;20041;-61
2023/03/09 09:26:35;;;;;;;674.67;616.70;;;;;;;15.45;nan;96853.38;5007108;28;20133;-60
2023/03/09 09:29:01;;;;;;;651.43;594.07;;;;;;;15.38;nan;96871.03;5003349;28;20128;-61
2023/03/09 09:31:28;;;;;;;632.40;576.27;;;;;;;15.48;nan;96908.25;5009120;28;20050;-61
2023/03/09 09:33:57;;;;;;;620.40;564.73;;;;;;;15.21;nan;96894.56;5018977;28;20049;-60
2023/03/09 09:36:24;;;;;;;619.30;563.40;;;;;;;15.47;nan;96900.59;5007150;28;20046;-61
2023/03/09 09:38:52;;;;;;;642.40;586.17;;;;;;;15.18;nan;96878.44;5008887;28;20136;-61
2023/03/09 09:41:51;;;;;;;645.07;588.73;;;;;;;14.87;nan;96916.53;5007960;28;20280;-61
2023/03/09 09:44:20;;;;;;;640.73;584.43;;;;;;;14.77;nan;96894.81;5007777;28;20434;-61
2023/03/09 09:46:47;;;;;;;623.37;567.27;;;;;;;14.44;nan;96913.25;5007367;28;20303;-60
2023/03/09 09:49:19;;;;;;;587.87;532.93;;;;;;;14.50;nan;96889.66;5002656;28;20613;-60
2023/03/09 09:51:59;;;;;;;614.50;558.87;;;;;;;14.71;nan;96871.19;5006352;28;20280;-60
2023/03/09 09:54:47;;;;;;;587.23;532.37;;;;;;;14.70;nan;96893.56;5008549;28;20288;-61
2023/03/09 09:57:30;;;;;;;599.40;544.00;;;;;;;14.61;nan;96886.41;5009160;28;20885;-61
2023/03/09 10:00:31;;;;;;;583.83;528.90;;;;;;;14.70;nan;96893.56;5006955;28;20307;-61
2023/03/09 10:03:33;;;;;;;588.40;533.43;;;;;;;14.55;nan;96912.59;5008005;28;20368;-61
2023/03/09 10:06:20;;;;;;;591.43;536.17;;;;;;;14.33;nan;96907.91;5004833;28;20315;-62
2023/03/09 10:09:04;;;;;;;590.43;535.30;;;;;;;14.31;nan;96906.31;5003244;28;20300;-60
2023/03/09 10:11:38;;;;;;;592.67;537.53;;;;;;;14.26;nan;96916.91;5007260;28;20869;-60
2023/03/09 10:14:52;;;;;;;622.57;566.77;;;;;;;14.25;nan;96915.28;5006356;28;20632;-60
2023/03/09 10:17:28;;;;;;;620.90;564.97;;;;;;;14.50;nan;96897.41;4992282;28;20407;-60
2023/03/09 10:19:59;;;;;;;616.33;560.67;;;;;;;14.64;nan;96948.94;4997467;28;20753;-59
2023/03/09 10:22:26;;;;;;;625.93;569.97;;;;;;;14.59;nan;96912.31;4997723;28;20358;-62
2023/03/09 10:24:53;;;;;;;480.20;427.67;;;;;;;14.43;nan;96918.47;4998849;28;20662;-59
2023/03/09 10:27:40;;;;;;;484.97;432.47;;;;;;;14.32;nan;96902.81;4997908;28;20293;-60
2023/03/09 10:30:21;;;;;;;452.13;328.07;;;;;;;14.23;nan;96914.53;4995270;28;20860;-59
2023/03/09 10:32:52;;;;;;;419.23;278.50;;;;;;;14.02;nan;96900.38;4998453;28;20300;-61
2023/03/09 10:35:32;;;;;;;306.77;200.97;;;;;;;14.20;nan;96925.03;4997145;28;20395;-61
2023/03/09 10:37:59;;;;;;;412.10;260.00;;;;;;;14.27;nan;96931.47;4995796;28;20449;-62
2023/03/09 10:40:29;;;;;;;408.60;251.93;;;;;;;14.35;nan;96983.41;4996817;28;20300;-62
2023/03/09 10:42:58;;;;;;;411.93;248.37;;;;;;;14.23;nan;96948.03;4981604;28;20514;-62
2023/03/09 10:45:35;;;;;;;269.80;127.23;;;;;;;14.15;nan;96950.25;4995877;28;20745;-63
2023/03/09 10:48:09;;;;;;;21.33;20.13;;;;;;;14.09;nan;96966.91;4996809;28;20744;-62
2023/03/09 10:50:53;;;;;;;23.43;22.13;;;;;;;14.06;nan;96943.06;4997652;28;20300;-62
2023/03/09 10:53:28;;;;;;;19.70;18.50;;;;;;;14.23;nan;96970.41;5003094;28;20375;-61
2023/03/09 10:55:58;;;;;;;18.80;17.55;;;;;;;14.26;nan;96973.63;5007953;28;20354;-62
2023/03/09 10:58:24;;;;;;;22.17;20.93;;;;;;;14.23;nan;96983.28;5008336;28;20041;-62
2023/03/09 11:00:55;;;;;;;18.90;18.00;;;;;;;14.26;nan;96981.34;5008175;28;21040;-62
2023/03/09 11:03:30;;;;;;;19.90;18.80;;;;;;;14.16;nan;96975.94;5007664;28;20839;-62
2023/03/09 11:06:08;;;;;;;;;;;;;;;14.24;nan;96982.38;5008850;28;20742;-61
2023/03/09 11:08:34;;;;;;;19.90;18.83;;;;;;;14.21;nan;96969.69;5007673;28;19926;-61
2023/03/09 11:11:28;;;;;;;19.17;18.13;;;;;;;14.15;nan;96979.44;5007750;28;20785;-62
2023/03/09 11:13:55;;;;;;;23.10;21.77;;;;;;;14.29;nan;96990.66;5005345;28;20096;-61
2023/03/09 11:16:27;;;;;;;25.30;23.93;;;;;;;14.38;nan;97003.03;5004979;28;20932;-62
2023/03/09 11:19:16;;;;;;;23.10;21.83;;;;;;;14.34;nan;97025.53;5007424;28;20743;-62
2023/03/09 11:22:05;;;;;;;24.57;23.27;;;;;;;14.35;nan;97028.97;5007332;28;20346;-60
2023/03/09 11:24:40;;;;;;;25.40;23.93;;;;;;;14.08;nan;97034.00;5002599;28;20407;-62
2023/03/09 11:27:09;;;;;;;;;;;;;;;14.01;nan;97053.31;5005564;28;20324;-63
2023/03/09 11:29:55;;;;;;;21.37;20.13;;;;;;;13.83;nan;97042.34;5009423;28;19956;-63
2023/03/09 11:32:21;;;;;;;22.35;21.17;;;;;;;13.85;nan;97022.44;5007875;28;20307;-62